Time;durP1;ratioP1;P1;durP2;ratioP2;P2;SDS_P1;SDS_P2;PMS_P1;PMS_P2;Temp;Humidity;BMP_temperature;BMP_pressure;BME280_temperature;BME280_humidity;BME280_pressure;Samples;Min_cycle;Max_cycle;Signal;HPM_P1;HPM_P2
2022/08/15 00:00:54;;;;;;;7.72;6.93;;;22.90;99.90;;;;;;5038817;28;37251;-85
2022/08/15 00:03:27;;;;;;;7.22;6.63;;;22.90;99.90;;;;;;5022148;28;39117;-86
2022/08/15 00:05:58;;;;;;;7.68;6.88;;;22.90;99.90;;;;;;5023961;28;38008;-85
2022/08/15 00:08:26;;;;;;;7.32;6.72;;;22.90;99.90;;;;;;5018331;28;40081;-84
2022/08/15 00:10:54;;;;;;;7.38;6.55;;;22.80;99.90;;;;;;5047264;28;37429;-85
2022/08/15 00:13:25;;;;;;;8.00;7.30;;;22.80;99.90;;;;;;5045540;28;39085;-85
2022/08/15 00:15:55;;;;;;;8.98;7.00;;;22.80;99.90;;;;;;5027874;28;37074;-85
2022/08/15 00:18:24;;;;;;;7.60;6.90;;;22.70;99.90;;;;;;5061806;28;40144;-86
2022/08/15 00:20:52;;;;;;;9.15;7.50;;;22.80;99.90;;;;;;5040696;28;39057;-85
2022/08/15 00:23:22;;;;;;;9.57;8.32;;;22.70;99.90;;;;;;5040711;28;38868;-85
2022/08/15 00:25:50;;;;;;;8.80;7.90;;;22.70;99.90;;;;;;5039988;28;37310;-85
2022/08/15 00:28:17;;;;;;;8.65;7.72;;;22.70;99.90;;;;;;5034217;27;38017;-86
2022/08/15 00:30:45;;;;;;;10.30;8.63;;;22.70;99.90;;;;;;5037556;28;38675;-85
2022/08/15 00:33:12;;;;;;;9.65;8.77;;;22.70;99.90;;;;;;5029402;28;37998;-84
2022/08/15 00:35:44;;;;;;;8.70;7.82;;;22.80;99.90;;;;;;5022547;28;36104;-84
2022/08/15 00:38:13;;;;;;;9.13;7.57;;;22.80;99.90;;;;;;5020080;28;39749;-85
2022/08/15 00:43:26;;;;;;;6.68;6.07;;;22.90;99.90;;;;;;5039829;28;48221;-85
2022/08/15 00:45:52;;;;;;;8.85;6.30;;;23.00;99.90;;;;;;5040566;28;38060;-85
2022/08/15 00:51:09;;;;;;;7.65;5.03;;;23.20;99.90;;;;;;5038915;28;40029;-84
2022/08/15 00:53:37;;;;;;;4.82;4.10;;;23.30;99.90;;;;;;5064317;28;38482;-84
2022/08/15 00:56:04;;;;;;;6.32;4.80;;;23.40;99.90;;;;;;5031097;28;37731;-84
2022/08/15 00:58:31;;;;;;;5.88;4.40;;;23.30;99.90;;;;;;5033693;28;37511;-84
2022/08/15 01:00:57;;;;;;;5.07;4.28;;;23.30;99.90;;;;;;5040783;28;38311;-84
2022/08/15 01:03:29;;;;;;;6.38;4.75;;;23.40;99.90;;;;;;5047391;28;38099;-81
2022/08/15 01:06:00;;;;;;;4.15;3.83;;;23.30;99.90;;;;;;5037567;28;37077;-81
2022/08/15 01:08:30;;;;;;;4.63;3.70;;;23.30;99.90;;;;;;5031187;28;39372;-83
2022/08/15 01:10:59;;;;;;;5.75;3.95;;;23.30;99.90;;;;;;5037542;28;38986;-81
2022/08/15 01:13:25;;;;;;;6.03;4.20;;;23.30;99.90;;;;;;5050592;28;39330;-84
2022/08/15 01:15:52;;;;;;;5.38;3.53;;;23.40;99.90;;;;;;5041385;28;37479;-84
2022/08/15 01:18:25;;;;;;;6.13;3.38;;;23.40;99.90;;;;;;5046550;28;39661;-84
2022/08/15 01:20:55;;;;;;;5.18;3.00;;;23.40;99.90;;;;;;5055122;28;39118;-83
2022/08/15 01:23:58;;;;;;;5.13;2.85;;;23.40;99.90;;;;;;5040291;28;39022;-83
2022/08/15 01:26:26;;;;;;;5.95;3.05;;;23.40;99.90;;;;;;5038928;28;37403;-84
2022/08/15 01:28:53;;;;;;;7.45;3.50;;;23.40;99.90;;;;;;5037282;28;38912;-83
2022/08/15 01:31:22;;;;;;;3.47;2.83;;;23.40;99.90;;;;;;5039136;28;38943;-81
2022/08/15 01:33:54;;;;;;;6.20;3.13;;;23.50;99.90;;;;;;5039879;28;37131;-84
2022/08/15 01:36:22;;;;;;;3.47;2.70;;;23.50;99.90;;;;;;5053727;27;37965;-84
2022/08/15 01:39:09;;;;;;;5.65;3.00;;;23.50;99.90;;;;;;5039180;28;37439;-83
2022/08/15 01:41:38;;;;;;;4.18;2.50;;;23.50;99.90;;;;;;5038653;28;47053;-82
2022/08/15 01:44:08;;;;;;;2.63;2.33;;;23.50;99.90;;;;;;5069726;28;38330;-84
2022/08/15 01:46:44;;;;;;;5.10;2.55;;;23.50;99.90;;;;;;5071737;28;37729;-83
2022/08/15 01:49:17;;;;;;;4.60;2.80;;;23.50;99.90;;;;;;5037868;28;39608;-83
2022/08/15 01:51:44;;;;;;;5.07;2.35;;;23.50;99.90;;;;;;5073448;28;39139;-85
2022/08/15 01:54:13;;;;;;;2.40;2.20;;;23.40;99.90;;;;;;5039253;28;36674;-81
2022/08/15 01:56:42;;;;;;;3.38;2.65;;;23.40;99.90;;;;;;5016149;28;37491;-84
2022/08/15 01:59:16;;;;;;;6.13;2.80;;;23.40;99.90;;;;;;5021383;28;38764;-84
2022/08/15 02:01:56;;;;;;;3.10;2.38;;;23.40;99.90;;;;;;5019882;28;40222;-85
2022/08/15 02:04:39;;;;;;;2.72;2.42;;;23.40;99.90;;;;;;5017722;28;38306;-82
2022/08/15 02:07:17;;;;;;;3.15;2.20;;;23.40;99.90;;;;;;5016620;28;36616;-83
2022/08/15 02:09:45;;;;;;;4.20;2.50;;;23.30;99.90;;;;;;5015512;28;40347;-83
2022/08/15 02:12:13;;;;;;;3.85;2.85;;;23.30;99.90;;;;;;5028756;28;36910;-83
2022/08/15 02:14:41;;;;;;;4.20;2.55;;;23.20;99.90;;;;;;5051497;28;38815;-83
2022/08/15 02:17:09;;;;;;;2.65;2.40;;;23.20;99.90;;;;;;5028639;28;38877;-83
2022/08/15 02:19:36;;;;;;;2.75;2.45;;;23.10;99.90;;;;;;5013964;28;38389;-83
2022/08/15 02:22:04;;;;;;;4.03;2.17;;;23.00;99.90;;;;;;5010728;28;37985;-82
2022/08/15 02:24:31;;;;;;;5.80;2.65;;;22.90;99.90;;;;;;5014064;28;38225;-83
2022/08/15 02:26:57;;;;;;;3.85;2.65;;;22.90;99.90;;;;;;5007769;28;39133;-82
2022/08/15 02:29:26;;;;;;;5.32;2.70;;;23.00;99.90;;;;;;5007985;28;39266;-82
2022/08/15 02:32:01;;;;;;;3.72;2.60;;;23.00;99.90;;;;;;5009302;28;38750;-83
2022/08/15 02:34:28;;;;;;;7.18;2.65;;;23.00;99.90;;;;;;5032956;28;47498;-82
2022/08/15 02:36:54;;;;;;;5.28;2.42;;;23.00;99.90;;;;;;5029705;28;37270;-85
2022/08/15 02:39:21;;;;;;;2.92;2.50;;;23.00;99.90;;;;;;5048424;27;40440;-84
2022/08/15 02:41:51;;;;;;;7.43;2.50;;;23.00;99.90;;;;;;5033938;28;38874;-84
2022/08/15 02:44:20;;;;;;;2.20;2.00;;;23.00;99.90;;;;;;5019779;28;39943;-84
2022/08/15 02:46:46;;;;;;;4.32;2.47;;;22.90;99.90;;;;;;5046510;28;38333;-85
2022/08/15 02:49:12;;;;;;;5.97;2.95;;;22.90;99.90;;;;;;5026518;28;39904;-81
2022/08/15 02:51:40;;;;;;;6.68;2.08;;;22.90;99.90;;;;;;5059042;28;38943;-81
2022/08/15 02:54:08;;;;;;;7.03;2.70;;;22.90;99.90;;;;;;5034612;28;36523;-83
2022/08/15 02:56:36;;;;;;;6.80;2.50;;;22.80;99.90;;;;;;5021783;28;37673;-84
2022/08/15 02:59:03;;;;;;;4.60;2.67;;;22.80;99.90;;;;;;5025140;28;39646;-84
2022/08/15 03:01:30;;;;;;;4.13;2.40;;;22.80;99.90;;;;;;5043257;28;38538;-83
2022/08/15 03:03:57;;;;;;;3.65;2.60;;;22.70;99.90;;;;;;5010894;28;39720;-84
2022/08/15 03:06:26;;;;;;;4.25;2.47;;;22.70;99.90;;;;;;5012754;28;37848;-84
2022/08/15 03:08:57;;;;;;;2.60;2.40;;;22.60;99.90;;;;;;5055588;28;39102;-84
2022/08/15 03:11:23;;;;;;;3.95;2.63;;;22.60;99.90;;;;;;5053980;28;38967;-83
2022/08/15 03:13:49;;;;;;;5.13;2.95;;;22.60;99.90;;;;;;5026099;28;38954;-83
2022/08/15 03:16:16;;;;;;;4.80;3.00;;;22.60;99.90;;;;;;5019737;28;39017;-84
2022/08/15 03:18:42;;;;;;;5.22;3.20;;;22.50;99.90;;;;;;5022691;28;38341;-84
2022/08/15 03:21:13;;;;;;;3.63;2.78;;;22.40;99.90;;;;;;5018114;28;37483;-84
2022/08/15 03:23:48;;;;;;;2.75;2.55;;;22.30;99.90;;;;;;5015209;28;38770;-84
2022/08/15 03:26:21;;;;;;;3.97;2.95;;;22.30;99.90;;;;;;5015497;28;37088;-84
2022/08/15 03:28:47;;;;;;;7.43;3.38;;;22.20;99.90;;;;;;5017895;28;39330;-83
2022/08/15 03:31:14;;;;;;;3.30;2.50;;;22.20;99.90;;;;;;5013335;28;39787;-83
2022/08/15 03:33:43;;;;;;;5.63;2.72;;;22.30;99.90;;;;;;5050635;28;38610;-83
2022/08/15 03:36:10;;;;;;;3.90;2.90;;;22.20;99.90;;;;;;5019419;28;38465;-84
2022/08/15 03:38:37;;;;;;;4.75;2.67;;;22.20;99.90;;;;;;5024231;28;39767;-83
2022/08/15 03:41:08;;;;;;;3.45;2.70;;;22.20;99.90;;;;;;5025749;28;38553;-83
2022/08/15 03:43:37;;;;;;;4.38;3.35;;;22.20;99.90;;;;;;5017123;28;39695;-84
2022/08/15 03:46:07;;;;;;;4.80;2.60;;;22.20;99.90;;;;;;5015397;28;36393;-83
2022/08/15 03:48:37;;;;;;;5.72;2.60;;;22.20;99.90;;;;;;5021254;28;39254;-83
2022/08/15 03:51:04;;;;;;;3.20;2.90;;;22.20;99.90;;;;;;5071653;28;38707;-82
2022/08/15 03:53:34;;;;;;;6.57;2.70;;;22.30;99.90;;;;;;5041187;28;38826;-85
2022/08/15 03:56:02;;;;;;;3.30;2.30;;;22.30;99.90;;;;;;5034877;28;37865;-85
2022/08/15 03:58:29;;;;;;;3.88;2.45;;;22.20;99.90;;;;;;5044219;28;48064;-84
2022/08/15 04:00:55;;;;;;;3.67;2.50;;;22.30;99.90;;;;;;5042312;28;40217;-83
2022/08/15 04:03:25;;;;;;;3.95;2.83;;;22.30;99.90;;;;;;5072409;27;39592;-83
2022/08/15 04:05:54;;;;;;;7.75;2.53;;;22.20;99.90;;;;;;5042068;28;38638;-83
2022/08/15 04:08:23;;;;;;;3.97;2.50;;;22.20;99.90;;;;;;5043127;28;39414;-83
2022/08/15 04:10:51;;;;;;;4.88;2.90;;;22.20;99.90;;;;;;5047065;28;38724;-83
2022/08/15 04:13:24;;;;;;;4.72;2.50;;;22.20;99.90;;;;;;5042272;28;39334;-85
2022/08/15 04:15:56;;;;;;;5.05;2.45;;;22.20;99.90;;;;;;5042140;27;36073;-85
2022/08/15 04:18:24;;;;;;;8.20;2.55;;;22.00;99.90;;;;;;5044027;28;38546;-85
2022/08/15 04:20:52;;;;;;;4.13;2.70;;;22.00;99.90;;;;;;5069846;28;38650;-85
2022/08/15 04:23:21;;;;;;;7.65;3.25;;;21.90;99.90;;;;;;5036724;28;38020;-84
2022/08/15 04:25:47;;;;;;;5.07;2.90;;;21.90;99.90;;;;;;5037315;28;37364;-84
2022/08/15 04:28:17;;;;;;;5.00;2.50;;;21.90;99.90;;;;;;5037799;28;39348;-86
2022/08/15 04:30:48;;;;;;;5.25;2.95;;;21.90;99.90;;;;;;5045987;28;37998;-85
2022/08/15 04:33:22;;;;;;;5.57;2.90;;;21.90;99.90;;;;;;5041946;28;37423;-84
2022/08/15 04:35:55;;;;;;;4.40;3.03;;;21.90;99.90;;;;;;5072268;28;36822;-84
2022/08/15 04:38:21;;;;;;;4.63;2.92;;;21.90;99.90;;;;;;5040003;28;37999;-84
2022/08/15 04:40:48;;;;;;;3.83;2.78;;;21.90;99.90;;;;;;5037810;28;37596;-83
2022/08/15 04:43:16;;;;;;;6.70;3.20;;;21.80;99.90;;;;;;5033394;28;38169;-84
2022/08/15 04:45:43;;;;;;;5.72;2.42;;;21.80;99.90;;;;;;5041545;28;36158;-84
2022/08/15 04:48:14;;;;;;;6.88;3.20;;;21.90;99.90;;;;;;5048054;28;38660;-87
2022/08/15 04:50:42;;;;;;;3.58;2.40;;;21.80;99.90;;;;;;5067930;28;37488;-85
2022/08/15 04:53:09;;;;;;;3.65;2.80;;;21.80;99.90;;;;;;5043075;28;37182;-85
2022/08/15 04:55:41;;;;;;;5.72;3.25;;;21.80;99.90;;;;;;5040441;28;36194;-84
2022/08/15 04:58:08;;;;;;;;;;;21.80;99.90;;;;;;5065508;28;38519;-84
2022/08/15 05:00:37;;;;;;;4.70;2.90;;;21.80;99.90;;;;;;5034873;28;38429;-83
2022/08/15 05:03:08;;;;;;;6.90;3.60;;;21.90;99.90;;;;;;5031484;28;38811;-82
2022/08/15 05:05:37;;;;;;;6.57;3.13;;;21.90;99.90;;;;;;5046945;28;36289;-84
2022/08/15 05:08:04;;;;;;;6.40;3.60;;;22.00;99.90;;;;;;5031858;28;37615;-83
2022/08/15 05:10:30;;;;;;;3.55;2.85;;;21.90;99.90;;;;;;5037812;27;38725;-86
2022/08/15 05:12:56;;;;;;;4.78;3.20;;;21.80;99.90;;;;;;5038102;28;38467;-85
2022/08/15 05:15:23;;;;;;;6.68;3.22;;;21.80;99.90;;;;;;5035374;28;37103;-85
2022/08/15 05:17:49;;;;;;;5.80;3.20;;;21.80;99.90;;;;;;5072197;28;37504;-85
2022/08/15 05:20:18;;;;;;;3.90;2.95;;;21.70;99.90;;;;;;5052727;27;37509;-85
2022/08/15 05:22:59;;;;;;;6.82;3.10;;;21.70;99.90;;;;;;5028241;28;38671;-86
2022/08/15 05:25:25;;;;;;;4.60;3.22;;;21.80;99.90;;;;;;5031269;28;36471;-84
2022/08/15 05:27:52;;;;;;;5.88;3.83;;;21.70;99.90;;;;;;5061262;28;37673;-84
2022/08/15 05:30:20;;;;;;;5.32;3.03;;;21.60;99.90;;;;;;5043143;28;38338;-83
2022/08/15 05:32:47;;;;;;;4.07;2.95;;;21.70;99.90;;;;;;5047424;28;36895;-84
2022/08/15 05:35:15;;;;;;;6.93;3.35;;;21.70;99.90;;;;;;5045917;28;36297;-83
2022/08/15 05:37:41;;;;;;;3.85;3.03;;;21.70;99.90;;;;;;5038136;28;39581;-84
2022/08/15 05:40:12;;;;;;;7.03;3.60;;;21.70;99.90;;;;;;5031364;28;37351;-83
2022/08/15 05:42:45;;;;;;;6.18;3.38;;;21.70;99.90;;;;;;5050045;28;38010;-83
2022/08/15 05:45:27;;;;;;;5.68;3.40;;;21.70;99.90;;;;;;5046482;28;36206;-84
2022/08/15 05:47:56;;;;;;;4.75;3.40;;;21.60;99.90;;;;;;5037164;27;39016;-82
2022/08/15 05:50:33;;;;;;;4.95;3.17;;;21.70;99.90;;;;;;5061270;28;38679;-83
2022/08/15 05:53:40;;;;;;;4.55;3.30;;;21.70;99.90;;;;;;5057149;27;38046;-84
2022/08/15 05:56:15;;;;;;;3.33;2.60;;;21.70;99.90;;;;;;5027074;28;47473;-83
2022/08/15 05:59:00;;;;;;;4.45;2.80;;;21.70;99.90;;;;;;5029438;28;39188;-86
2022/08/15 06:01:34;;;;;;;3.75;2.90;;;21.70;99.90;;;;;;5039168;28;39717;-84
2022/08/15 06:04:10;;;;;;;7.32;3.13;;;21.80;99.90;;;;;;5032642;28;37740;-84
2022/08/15 06:06:39;;;;;;;3.03;2.63;;;21.80;99.90;;;;;;5036093;28;48994;-84
2022/08/15 06:09:28;;;;;;;5.35;3.45;;;21.80;99.90;;;;;;5070111;28;38916;-83
2022/08/15 06:11:56;;;;;;;5.60;3.25;;;21.80;99.90;;;;;;5073324;28;39139;-84
2022/08/15 06:14:30;;;;;;;8.57;2.53;;;21.80;99.90;;;;;;5042629;28;38834;-84
2022/08/15 06:17:03;;;;;;;6.03;2.67;;;21.90;99.90;;;;;;5073190;28;38979;-84
2022/08/15 06:19:36;;;;;;;6.53;2.92;;;21.90;99.90;;;;;;5031054;28;47060;-83
2022/08/15 06:22:08;;;;;;;3.75;2.85;;;21.90;99.90;;;;;;5031786;28;38334;-83
2022/08/15 06:24:53;;;;;;;;;;;21.90;99.90;;;;;;5044822;28;36790;-86
2022/08/15 06:27:39;;;;;;;8.85;3.20;;;21.80;99.90;;;;;;5061864;28;38907;-88
2022/08/15 06:30:32;;;;;;;5.68;3.47;;;21.40;99.90;;;;;;5038330;28;39510;-84
2022/08/15 06:33:15;;;;;;;4.78;3.50;;;21.20;99.90;;;;;;5040636;28;38476;-87
2022/08/15 06:35:45;;;;;;;6.22;3.00;;;21.00;99.90;;;;;;5029943;28;47058;-83
2022/08/15 06:38:43;;;;;;;8.32;3.70;;;21.00;99.90;;;;;;5034757;28;37818;-85
2022/08/15 06:41:15;;;;;;;7.03;3.60;;;21.00;99.90;;;;;;5050634;27;39646;-86
2022/08/15 06:43:44;;;;;;;5.15;4.38;;;20.80;99.90;;;;;;5065492;27;39380;-86
2022/08/15 06:46:11;;;;;;;7.22;3.90;;;20.70;99.90;;;;;;5056451;28;38881;-89
2022/08/15 06:48:41;;;;;;;11.38;5.22;;;20.60;99.90;;;;;;5056739;28;36201;-88
2022/08/15 06:51:09;;;;;;;9.52;5.43;;;20.30;99.90;;;;;;5076112;28;38755;-88
2022/08/15 06:53:53;;;;;;;9.40;5.03;;;20.20;99.90;;;;;;5051594;28;39959;-88
2022/08/15 06:56:31;;;;;;;9.32;6.35;;;20.10;99.90;;;;;;5064425;28;37025;-84
2022/08/15 06:59:08;;;;;;;9.70;5.38;;;20.10;99.90;;;;;;5061713;28;38149;-87
2022/08/15 07:01:46;;;;;;;9.07;5.30;;;20.10;99.90;;;;;;5043106;28;48520;-90
2022/08/15 07:04:34;;;;;;;10.02;6.68;;;20.10;99.90;;;;;;5062707;27;39092;-91
2022/08/15 07:07:23;;;;;;;14.15;6.90;;;19.90;99.90;;;;;;5070740;28;37057;-90
2022/08/15 07:09:52;;;;;;;7.88;6.50;;;19.90;99.90;;;;;;5039755;28;48384;-90
2022/08/15 07:12:50;;;;;;;9.40;6.95;;;19.90;99.90;;;;;;5092402;27;39510;-88
2022/08/15 07:15:35;;;;;;;9.65;7.32;;;19.90;99.90;;;;;;5060928;28;37186;-87
2022/08/15 07:18:13;;;;;;;7.82;6.70;;;19.90;99.90;;;;;;5066472;27;39659;-88
2022/08/15 07:20:39;;;;;;;8.35;6.93;;;19.90;99.90;;;;;;5045645;28;38150;-89
2022/08/15 07:23:27;;;;;;;10.60;6.90;;;19.90;99.90;;;;;;5041011;28;39406;-88
2022/08/15 07:25:57;;;;;;;11.52;6.75;;;20.00;99.90;;;;;;5045441;28;38673;-88
2022/08/15 07:28:30;;;;;;;13.38;7.45;;;20.00;99.90;;;;;;5053222;28;36975;-89
2022/08/15 07:31:20;;;;;;;12.90;7.53;;;20.10;99.90;;;;;;5039498;28;37678;-88
2022/08/15 07:33:49;;;;;;;11.27;7.93;;;20.00;99.90;;;;;;5037146;28;46826;-90
2022/08/15 07:36:26;;;;;;;7.63;6.82;;;20.00;99.90;;;;;;5072258;28;38960;-89
2022/08/15 07:38:54;;;;;;;8.88;7.25;;;20.00;99.90;;;;;;5074077;28;38387;-89
2022/08/15 07:41:30;;;;;;;8.27;7.07;;;20.10;99.90;;;;;;5041459;28;38151;-89
2022/08/15 07:44:33;;;;;;;11.07;7.45;;;20.20;99.90;;;;;;5089863;27;39835;-91
2022/08/15 07:47:08;;;;;;;11.32;8.10;;;20.30;99.90;;;;;;5037265;28;47466;-89
2022/08/15 07:49:37;;;;;;;11.07;9.77;;;20.40;99.90;;;;;;5041335;28;46846;-91
2022/08/15 07:52:20;;;;;;;9.18;8.18;;;20.50;99.90;;;;;;5039622;28;36391;-82
2022/08/15 07:54:48;;;;;;;8.32;7.25;;;20.50;99.90;;;;;;5042070;28;38585;-82
2022/08/15 07:57:25;;;;;;;10.10;8.93;;;20.60;99.90;;;;;;5042070;28;37441;-82
2022/08/15 08:00:10;;;;;;;11.32;10.15;;;20.70;99.90;;;;;;5043011;27;36507;-82
2022/08/15 08:02:53;;;;;;;13.25;11.30;;;20.70;99.90;;;;;;5035371;28;48663;-82
2022/08/15 08:05:27;;;;;;;13.32;9.52;;;20.80;99.90;;;;;;5041827;28;37678;-83
2022/08/15 08:07:55;;;;;;;10.15;9.07;;;20.80;99.90;;;;;;5049358;27;37879;-82
2022/08/15 08:10:39;;;;;;;11.77;9.07;;;20.90;99.90;;;;;;5043503;27;37772;-82
2022/08/15 08:13:13;;;;;;;10.80;8.95;;;20.90;99.90;;;;;;5044796;28;38228;-85
2022/08/15 08:15:50;;;;;;;10.10;9.00;;;21.00;99.90;;;;;;5044506;28;40656;-84
2022/08/15 08:18:47;;;;;;;12.40;8.50;;;21.10;99.90;;;;;;5034525;28;38808;-83
2022/08/15 08:21:40;;;;;;;9.50;8.57;;;21.10;99.90;;;;;;5036796;27;38482;-85
2022/08/15 08:24:19;;;;;;;10.30;9.27;;;21.30;99.90;;;;;;5033837;28;38403;-83
2022/08/15 08:27:02;;;;;;;10.85;9.10;;;21.30;99.90;;;;;;5037750;28;40050;-83
2022/08/15 08:29:48;;;;;;;8.77;8.02;;;21.40;99.90;;;;;;5039325;28;49345;-83
2022/08/15 08:32:29;;;;;;;11.75;10.40;;;21.50;99.90;;;;;;5067320;28;39164;-83
2022/08/15 08:35:13;;;;;;;12.38;11.10;;;21.70;99.90;;;;;;5038652;28;37232;-83
2022/08/15 08:37:43;;;;;;;11.73;9.85;;;21.80;99.90;;;;;;5076015;28;46943;-83
2022/08/15 08:43:49;;;;;;;13.27;11.73;;;22.10;99.90;;;;;;5042137;28;38797;-83
2022/08/15 08:46:48;;;;;;;11.23;10.05;;;22.20;99.90;;;;;;5044109;27;37906;-83
2022/08/15 08:49:25;;;;;;;14.40;11.88;;;22.50;99.90;;;;;;5049137;28;40341;-84
2022/08/15 08:52:20;;;;;;;12.45;10.85;;;23.10;99.90;;;;;;5041833;28;38549;-81
2022/08/15 08:55:16;;;;;;;12.90;11.60;;;23.40;99.90;;;;;;5036330;28;47615;-83
2022/08/15 08:57:53;;;;;;;13.70;11.32;;;23.20;99.90;;;;;;5014747;28;48924;-81
2022/08/15 09:00:23;;;;;;;12.90;10.90;;;23.40;99.90;;;;;;5022900;28;40302;-82
2022/08/15 09:03:11;;;;;;;13.90;10.52;;;23.60;99.90;;;;;;5023456;28;39335;-81
2022/08/15 09:05:56;;;;;;;14.45;10.70;;;23.90;99.90;;;;;;5025279;28;49073;-81
2022/08/15 09:08:51;;;;;;;13.27;11.70;;;24.00;99.90;;;;;;5026137;27;37792;-79
2022/08/15 09:11:28;;;;;;;14.98;11.98;;;23.90;99.90;;;;;;5022826;28;38333;-81
2022/08/15 09:14:20;;;;;;;14.05;10.52;;;23.90;99.90;;;;;;5046490;28;40098;-81
2022/08/15 09:16:49;;;;;;;11.77;9.90;;;24.00;99.90;;;;;;5031776;28;47311;-81
2022/08/15 09:19:24;;;;;;;12.85;10.75;;;23.90;99.90;;;;;;5057854;28;36146;-82
2022/08/15 09:21:51;;;;;;;10.98;9.98;;;23.90;99.90;;;;;;5043548;28;40585;-80
2022/08/15 09:24:19;;;;;;;12.88;10.82;;;23.80;99.90;;;;;;5077946;28;40097;-80
2022/08/15 09:27:04;;;;;;;10.93;9.90;;;23.90;99.90;;;;;;5040849;28;39001;-81
2022/08/15 09:29:33;;;;;;;12.38;11.15;;;23.70;99.90;;;;;;5044718;28;47320;-81
2022/08/15 09:32:17;;;;;;;14.68;11.30;;;23.60;99.90;;;;;;5077316;28;39139;-81
2022/08/15 09:35:04;;;;;;;12.10;10.82;;;23.80;99.90;;;;;;5068092;27;47574;-81
2022/08/15 09:37:43;;;;;;;11.48;9.77;;;23.90;99.90;;;;;;5044213;28;47534;-79
2022/08/15 09:40:33;;;;;;;13.52;10.93;;;24.10;99.90;;;;;;5035977;28;37871;-79
2022/08/15 09:43:02;;;;;;;14.77;10.02;;;24.30;99.90;;;;;;5035688;28;40120;-79
2022/08/15 09:45:40;;;;;;;10.70;9.70;;;24.50;99.90;;;;;;5071668;28;47033;-79
2022/08/15 09:48:33;;;;;;;9.38;8.48;;;24.40;99.90;;;;;;5039061;28;38171;-80
2022/08/15 09:51:36;;;;;;;14.80;10.60;;;24.60;99.90;;;;;;5040294;28;37529;-80
2022/08/15 09:54:26;;;;;;;10.23;9.23;;;24.50;99.90;;;;;;5047042;28;47189;-80
2022/08/15 09:57:20;;;;;;;13.18;9.45;;;24.60;99.90;;;;;;5054728;28;39981;-80
2022/08/15 09:59:57;;;;;;;12.00;10.73;;;24.60;99.90;;;;;;5040579;28;47110;-80
2022/08/15 10:02:27;;;;;;;14.07;10.23;;;24.60;99.90;;;;;;5031071;28;38139;-80
2022/08/15 10:04:55;;;;;;;12.43;9.27;;;24.50;99.90;;;;;;5059050;28;39518;-79
2022/08/15 10:07:48;;;;;;;9.77;8.48;;;24.50;99.90;;;;;;5031392;28;39358;-80
2022/08/15 10:10:20;;;;;;;12.27;8.68;;;24.60;99.90;;;;;;5031935;28;38604;-80
2022/08/15 10:13:07;;;;;;;14.13;9.73;;;24.60;99.90;;;;;;5028658;28;37852;-79
2022/08/15 10:15:43;;;;;;;13.27;9.50;;;24.70;99.90;;;;;;5027429;28;47201;-79
2022/08/15 10:18:30;;;;;;;10.90;9.73;;;24.80;99.90;;;;;;5031255;28;37474;-79
2022/08/15 10:20:56;;;;;;;11.35;8.93;;;25.00;99.90;;;;;;5024015;28;39961;-80
2022/08/15 10:23:45;;;;;;;10.32;9.13;;;25.10;99.90;;;;;;5024153;28;37367;-80
2022/08/15 10:26:24;;;;;;;14.60;9.45;;;25.40;99.90;;;;;;5020587;28;39748;-79
2022/08/15 10:29:17;;;;;;;15.98;10.50;;;25.50;99.90;;;;;;5023420;28;39190;-77
2022/08/15 10:31:56;;;;;;;11.10;9.10;;;25.20;99.90;;;;;;5025549;28;47054;-77
2022/08/15 10:34:35;;;;;;;10.57;9.32;;;25.40;99.90;;;;;;5030209;28;37680;-78
2022/08/15 10:37:18;;;;;;;15.60;10.27;;;25.70;99.90;;;;;;5029188;28;40539;-78
2022/08/15 10:40:20;;;;;;;11.70;9.82;;;25.50;99.90;;;;;;5025454;28;39043;-77
2022/08/15 10:43:23;;;;;;;13.05;10.63;;;25.30;99.90;;;;;;5039238;28;47037;-78
2022/08/15 10:46:18;;;;;;;9.48;8.43;;;25.40;99.90;;;;;;5019504;28;48652;-78
2022/08/15 10:49:19;;;;;;;10.93;9.75;;;25.60;99.90;;;;;;5041889;27;49273;-77
2022/08/15 10:52:01;;;;;;;8.52;7.63;;;25.50;99.90;;;;;;5037985;28;46805;-78
2022/08/15 10:54:49;;;;;;;10.52;9.02;;;25.40;99.90;;;;;;5041329;28;47033;-78
2022/08/15 10:57:20;;;;;;;12.23;9.77;;;25.20;99.90;;;;;;5079805;27;38930;-78
2022/08/15 10:59:51;;;;;;;13.32;10.68;;;25.00;99.90;;;;;;5045783;28;39800;-78
2022/08/15 11:02:19;;;;;;;12.55;9.93;;;25.00;99.90;;;;;;5045672;28;40287;-78
2022/08/15 11:04:45;;;;;;;11.10;8.98;;;24.70;99.90;;;;;;5052731;28;37523;-78
2022/08/15 11:07:26;;;;;;;11.63;10.18;;;24.70;99.90;;;;;;5048326;28;37327;-77
2022/08/15 11:09:59;;;;;;;14.63;11.98;;;24.50;99.90;;;;;;5042595;28;39544;-78
2022/08/15 11:12:30;;;;;;;14.80;12.90;;;24.50;99.90;;;;;;5044007;28;38487;-78
2022/08/15 11:15:04;;;;;;;16.33;12.38;;;24.50;99.90;;;;;;5052197;28;38936;-78
2022/08/15 11:17:33;;;;;;;13.93;12.38;;;24.40;99.90;;;;;;5045813;28;45377;-79
2022/08/15 11:20:12;;;;;;;13.57;11.85;;;24.20;99.90;;;;;;5039551;28;38601;-81
2022/08/15 11:22:53;;;;;;;14.05;12.23;;;24.00;99.90;;;;;;5042927;28;47672;-83
2022/08/15 11:25:27;;;;;;;15.10;12.05;;;24.00;99.90;;;;;;5047403;28;38656;-80
2022/08/15 11:28:06;;;;;;;13.90;12.40;;;24.10;99.90;;;;;;5051557;28;38132;-79
2022/08/15 11:30:37;;;;;;;15.77;12.38;;;24.20;99.90;;;;;;5053141;27;48522;-79
2022/08/15 11:33:26;;;;;;;13.20;11.52;;;24.40;99.90;;;;;;5045182;28;38029;-79
2022/08/15 11:36:18;;;;;;;14.40;12.93;;;24.40;99.90;;;;;;5045821;28;38039;-79
2022/08/15 11:38:52;;;;;;;;;;;24.40;99.90;;;;;;5052836;28;47155;-79
2022/08/15 11:41:26;;;;;;;14.00;10.95;;;24.50;99.90;;;;;;5075652;28;39020;-80
2022/08/15 11:43:54;;;;;;;14.25;11.52;;;24.60;99.90;;;;;;5048029;28;39803;-82
2022/08/15 11:46:22;;;;;;;10.38;9.35;;;24.80;99.90;;;;;;5051183;27;37174;-81
2022/08/15 11:49:08;;;;;;;11.93;10.77;;;24.90;99.90;;;;;;5043530;28;38182;-80
2022/08/15 11:51:42;;;;;;;14.00;12.57;;;25.10;99.90;;;;;;5073219;28;47488;-79
2022/08/15 11:54:14;;;;;;;15.07;13.52;;;25.10;99.90;;;;;;5031896;28;40127;-80
2022/08/15 11:56:55;;;;;;;18.00;16.20;;;24.70;99.90;;;;;;5033803;28;38154;-81
2022/08/15 11:59:26;;;;;;;20.00;16.75;;;24.50;99.90;;;;;;5041500;28;39509;-82
2022/08/15 12:02:27;;;;;;;20.30;16.63;;;24.30;99.90;;;;;;5039558;28;39621;-81
2022/08/15 12:04:54;;;;;;;19.50;15.85;;;24.30;99.90;;;;;;5051537;28;47213;-82
2022/08/15 12:07:27;;;;;;;13.45;11.63;;;24.40;99.90;;;;;;5047904;28;39139;-81
2022/08/15 12:10:04;;;;;;;16.42;14.77;;;24.60;99.90;;;;;;5077063;27;39274;-81
2022/08/15 12:12:49;;;;;;;18.10;16.20;;;24.50;99.90;;;;;;5080571;27;47124;-81
2022/08/15 12:15:20;;;;;;;23.20;16.05;;;24.30;99.90;;;;;;5048833;28;38066;-81
2022/08/15 12:18:06;;;;;;;18.75;14.65;;;24.40;99.90;;;;;;5075764;27;39067;-80
2022/08/15 12:20:41;;;;;;;20.42;16.08;;;24.40;99.90;;;;;;5064532;28;47334;-81
2022/08/15 12:23:52;;;;;;;19.83;17.40;;;24.40;99.90;;;;;;5075935;28;20041;-81
2022/08/15 12:26:20;;;;;;;22.58;16.77;;;24.60;99.90;;;;;;5034413;28;38901;-80
2022/08/15 12:28:46;;;;;;;12.95;11.15;;;24.60;99.90;;;;;;5046438;28;38409;-80
2022/08/15 12:31:33;;;;;;;22.27;17.48;;;25.10;99.90;;;;;;5044856;28;37171;-81
2022/08/15 12:34:09;;;;;;;15.85;14.13;;;25.30;99.90;;;;;;5041902;28;38695;-79
2022/08/15 12:36:37;;;;;;;19.45;16.95;;;25.40;99.90;;;;;;5041446;28;46950;-80
2022/08/15 12:39:03;;;;;;;12.15;10.90;;;25.50;99.90;;;;;;5043298;28;37938;-80
2022/08/15 12:41:30;;;;;;;17.13;15.35;;;25.60;99.90;;;;;;5040057;28;38451;-80
2022/08/15 12:43:57;;;;;;;17.58;15.73;;;25.60;99.90;;;;;;5048060;28;40737;-80
2022/08/15 12:46:23;;;;;;;15.93;13.15;;;25.60;99.90;;;;;;5041785;27;38092;-79
2022/08/15 12:48:49;;;;;;;20.15;18.05;;;25.80;99.90;;;;;;5076649;28;39671;-80
2022/08/15 12:51:17;;;;;;;17.83;15.93;;;25.80;99.90;;;;;;5051743;27;37692;-80
2022/08/15 12:53:43;;;;;;;14.77;11.68;;;25.80;99.90;;;;;;5039059;28;37557;-80
2022/08/15 12:56:10;;;;;;;15.63;14.10;;;26.20;99.90;;;;;;5050336;27;40119;-78
2022/08/15 12:58:37;;;;;;;23.90;16.15;;;26.20;99.90;;;;;;5078673;28;39113;-80
2022/08/15 13:01:08;;;;;;;19.88;15.00;;;26.40;99.90;;;;;;5044876;28;39152;-80
2022/08/15 13:03:34;;;;;;;17.33;14.45;;;26.60;99.90;;;;;;5059234;28;38765;-80
2022/08/15 13:06:14;;;;;;;20.70;16.20;;;26.40;99.90;;;;;;5042251;28;38677;-78
2022/08/15 13:08:42;;;;;;;16.30;14.52;;;26.10;99.90;;;;;;5068399;27;48563;-81
2022/08/15 13:11:10;;;;;;;20.27;17.45;;;26.30;99.90;;;;;;5041960;28;38201;-81
2022/08/15 13:13:36;;;;;;;17.15;14.02;;;25.90;99.90;;;;;;5048441;27;39528;-80
2022/08/15 13:16:06;;;;;;;12.52;11.15;;;25.90;99.90;;;;;;5053510;27;39367;-79
2022/08/15 13:18:34;;;;;;;14.63;13.10;;;26.10;99.90;;;;;;5042902;28;38611;-78
2022/08/15 13:23:51;;;;;;;15.07;13.48;;;26.20;99.90;;;;;;5039124;27;49078;-78
2022/08/15 13:26:20;;;;;;;12.00;10.90;;;25.90;99.90;;;;;;5054949;28;37847;-78
2022/08/15 13:28:48;;;;;;;11.52;10.20;;;26.10;99.90;;;;;;5044125;28;38938;-78